This is the latest recevied weather packets stored in our database for station/object EA1PVC-10. If no packets are shown the sender has not sent any weather packets the latest 10 day(s).
| Time | Temp. | Humidity | Pressure | Rain* | Wind** | Luminosity | Snow |
|---|---|---|---|---|---|---|---|
| 1777397787 | 32.22° C | 25% | 915.3 hPa | - | - | - | - |
| 1777395976 | 41.11° C | 17% | 915.5 hPa | - | - | - | - |
| 1777394176 | 41.11° C | 16% | 915.4 hPa | - | - | - | - |
| 1777393276 | 44.44° C | 16% | 915.5 hPa | - | - | - | - |
| 1777392376 | 42.22° C | 16% | 915.7 hPa | - | - | - | - |
| 1777391476 | 40.56° C | 19% | 915.8 hPa | - | - | - | - |
| 1777390575 | 40° C | 19% | 915.8 hPa | - | - | - | - |
| 1777387875 | 35.56° C | 25% | 916.5 hPa | - | - | - | - |
| 1777386975 | 31.11° C | 27% | 917.2 hPa | - | - | - | - |
| 1777386075 | 25° C | 31% | 910.8 hPa | - | - | - | - |
| 1777385162 | 18.33° C | 33% | 902.7 hPa | - | - | - | - |
| 1777384262 | 26.11° C | 38% | 917.2 hPa | - | - | - | - |
| 1777383362 | 23.89° C | 44% | 917.3 hPa | - | - | - | - |
| 1777381562 | 23.33° C | 43% | 917.7 hPa | - | - | - | - |
| 1777380661 | 23.33° C | 41% | 918.2 hPa | - | - | - | - |
| 1777379762 | 22.78° C | 44% | 918.1 hPa | - | - | - | - |
| 1777378861 | 22.78° C | 44% | 918.2 hPa | - | - | - | - |
| 1777376161 | 21.67° C | 49% | 918.7 hPa | - | - | - | - |
| 1777375261 | 18.33° C | 45% | 912.9 hPa | - | - | - | - |
| 1777374350 | 22.22° C | 45% | 918.7 hPa | - | - | - | - |
| 1777373450 | 21.67° C | 46% | 918.8 hPa | - | - | - | - |
| 1777371650 | 21.67° C | 52% | 919.1 hPa | - | - | - | - |
| 1777370749 | 21.11° C | 55% | 919 hPa | - | - | - | - |
| 1777369849 | 20.56° C | 59% | 918.9 hPa | - | - | - | - |
| 1777368949 | 19.44° C | 64% | 918.9 hPa | - | - | - | - |
* Rain since midnight (hover to see other rain measurements)
** Current wind speed in m/s (hover to see current wind gust speed)